Terminal Aerodrome Forecast
Issued by NWS Jackson, MS

Home | Current Version | Previous Version | Text Only | Print | Product List | Glossary On
Versions: 1 2 3 4 5 6 7 8 9 10 11 12 13
000
FTUS44 KJAN 260500 RRA
TAFMEI
TAF
KMEI 260542Z 2606/2706 30003KT P6SM SKC
     FM261400 22016G23KT P6SM SKC
     FM270200 28005KT P6SM SKC=

USA.gov is the U.S. government's official web portal to all federal, state and local government web resources and services.